createdAt,value
2018-12-22T00:01:21.416Z,84.09
2018-12-22T00:03:54.953Z,84.83
2018-12-22T00:06:25.490Z,84.15
2018-12-22T00:08:56.113Z,84.28
2018-12-22T00:11:26.813Z,84.49
2018-12-22T00:13:57.323Z,83.26
2018-12-22T00:16:27.878Z,83.34
2018-12-22T00:18:58.401Z,83.81
2018-12-22T00:21:28.910Z,83.89
2018-12-22T00:24:00.305Z,83.92
2018-12-22T00:26:30.819Z,83.68
2018-12-22T00:29:01.435Z,84.28
2018-12-22T00:31:31.922Z,84.23
2018-12-22T00:34:02.427Z,84.24
2018-12-22T00:36:32.929Z,83.46
2018-12-22T00:39:06.268Z,83.36
2018-12-22T00:41:36.867Z,83.94
2018-12-22T00:44:07.497Z,83.67
2018-12-22T00:46:38.117Z,83.46
2018-12-22T00:49:08.687Z,83.28
2018-12-22T00:51:39.402Z,82.57
2018-12-22T00:54:09.916Z,82.61
2018-12-22T00:56:40.411Z,81.87
2018-12-22T00:59:11.953Z,81.60
2018-12-22T01:01:42.535Z,81.97
2018-12-22T01:04:13.050Z,82.17
2018-12-22T01:06:43.559Z,82.12
2018-12-22T01:09:14.037Z,82.12
2018-12-22T01:11:44.533Z,82.22
2018-12-22T01:14:15.001Z,81.29
2018-12-22T01:16:45.504Z,81.19
2018-12-22T01:19:16.031Z,80.29
2018-12-22T01:21:46.539Z,81.46
2018-12-22T01:24:17.029Z,80.76
2018-12-22T01:26:47.554Z,81.21
2018-12-22T01:29:18.106Z,79.85
2018-12-22T01:31:48.666Z,78.78
2018-12-22T01:34:19.131Z,79.05
2018-12-22T01:36:49.592Z,78.68
2018-12-22T01:39:20.061Z,79.20
2018-12-22T01:41:50.582Z,78.71
2018-12-22T01:44:21.106Z,79.30
2018-12-22T01:46:51.633Z,78.52
2018-12-22T01:49:22.090Z,78.31
2018-12-22T01:51:52.618Z,77.69
2018-12-22T01:54:23.339Z,78.40
2018-12-22T01:56:53.869Z,78.10
2018-12-22T01:59:24.392Z,76.79
2018-12-22T02:01:55.438Z,76.92
2018-12-22T02:04:25.914Z,75.43
2018-12-22T02:06:56.538Z,74.72
2018-12-22T02:09:27.087Z,73.43
2018-12-22T02:11:58.545Z,73.79
2018-12-22T02:14:29.098Z,73.25
2018-12-22T02:16:59.759Z,73.45
2018-12-22T02:19:31.406Z,73.45
2018-12-22T02:22:02.343Z,73.64
2018-12-22T02:24:34.035Z,73.62
2018-12-22T02:27:04.507Z,73.57
2018-12-22T02:29:35.463Z,73.78
2018-12-22T02:32:05.994Z,73.23
2018-12-22T02:34:37.404Z,73.30
2018-12-22T02:37:08.436Z,73.55
2018-12-22T02:39:38.874Z,73.25
2018-12-22T02:42:10.497Z,73.44
2018-12-22T02:44:40.979Z,72.70
2018-12-22T02:47:11.465Z,73.17
2018-12-22T02:49:42.024Z,72.98
2018-12-22T02:52:12.495Z,73.22
2018-12-22T02:54:42.974Z,73.28
2018-12-22T02:57:13.468Z,73.07
2018-12-22T02:59:43.988Z,71.92
2018-12-22T03:02:14.464Z,72.18
2018-12-22T03:04:45.036Z,71.93
2018-12-22T03:07:16.734Z,70.67
2018-12-22T03:09:47.297Z,70.77
2018-12-22T03:12:17.812Z,70.92
2018-12-22T03:14:48.348Z,71.16
2018-12-22T03:17:18.842Z,70.99
2018-12-22T03:19:49.370Z,71.11
2018-12-22T03:22:19.840Z,71.41
2018-12-22T03:24:50.290Z,70.11
2018-12-22T03:27:20.845Z,70.94
2018-12-22T03:29:58.039Z,71.25
2018-12-22T03:32:28.528Z,70.39
2018-12-22T03:34:59.025Z,70.40
2018-12-22T03:37:29.510Z,70.43
2018-12-22T03:40:01.157Z,70.80
2018-12-22T03:42:31.613Z,70.72
2018-12-22T03:45:02.090Z,71.11
2018-12-22T03:47:32.560Z,70.91
2018-12-22T03:50:03.036Z,70.24
2018-12-22T03:52:33.547Z,69.05
2018-12-22T03:55:04.171Z,68.60
2018-12-22T03:57:34.682Z,69.13
2018-12-22T04:00:05.445Z,68.40
2018-12-22T04:02:35.971Z,68.03
2018-12-22T04:05:07.651Z,68.58
2018-12-22T04:07:38.317Z,69.70
2018-12-22T04:10:09.142Z,68.76
2018-12-22T04:12:39.674Z,67.19
2018-12-22T04:15:10.165Z,67.12
2018-12-22T04:17:40.655Z,67.44
2018-12-22T04:20:11.103Z,66.75
2018-12-22T04:22:41.617Z,67.20
2018-12-22T04:25:12.139Z,66.66
2018-12-22T04:27:42.619Z,67.12
2018-12-22T04:30:13.088Z,66.87
2018-12-22T04:32:43.547Z,67.53
2018-12-22T04:35:14.014Z,68.25
2018-12-22T04:37:44.499Z,68.41
2018-12-22T04:40:14.960Z,69.49
2018-12-22T04:42:45.421Z,70.45
2018-12-22T04:45:15.877Z,71.08
2018-12-22T04:47:46.370Z,70.60
2018-12-22T04:50:17.849Z,70.63
2018-12-22T04:52:48.370Z,70.45
2018-12-22T04:55:18.866Z,68.75
2018-12-22T04:57:49.305Z,67.70
2018-12-22T05:00:19.793Z,67.46
2018-12-22T05:02:50.333Z,67.15
2018-12-22T05:05:20.824Z,67.37
2018-12-22T05:07:51.314Z,66.33
2018-12-22T05:10:21.777Z,67.09
2018-12-22T05:12:52.237Z,67.31
2018-12-22T05:15:22.745Z,68.27
2018-12-22T05:17:53.207Z,68.70
2018-12-22T05:20:23.711Z,68.72
2018-12-22T05:22:54.194Z,68.84
2018-12-22T05:25:24.694Z,69.52
2018-12-22T05:27:55.170Z,69.46
2018-12-22T05:30:25.627Z,70.40
2018-12-22T05:32:56.102Z,70.63
2018-12-22T05:35:26.700Z,70.44
2018-12-22T05:37:57.213Z,69.72
2018-12-22T05:40:27.658Z,69.93
2018-12-22T05:42:58.210Z,70.01
2018-12-22T05:45:28.682Z,70.06
2018-12-22T05:47:59.133Z,70.54
2018-12-22T05:50:29.639Z,70.00
2018-12-22T05:53:00.126Z,70.61
2018-12-22T05:55:30.671Z,70.29
2018-12-22T05:58:01.150Z,70.80
2018-12-22T06:00:31.813Z,69.83
2018-12-22T06:03:02.294Z,69.27
2018-12-22T06:05:32.790Z,69.33
2018-12-22T06:08:03.276Z,69.41
2018-12-22T06:10:33.804Z,69.86
2018-12-22T06:13:04.387Z,68.72
2018-12-22T06:15:34.912Z,69.10
2018-12-22T06:18:05.420Z,68.77
2018-12-22T06:20:36.047Z,68.63
2018-12-22T06:23:06.651Z,68.35
2018-12-22T06:25:37.151Z,68.55
2018-12-22T06:28:07.631Z,68.65
2018-12-22T06:30:38.358Z,67.47
2018-12-22T06:33:08.966Z,66.90
2018-12-22T06:35:39.479Z,67.32
2018-12-22T06:38:11.127Z,67.63
2018-12-22T06:40:41.605Z,67.68
2018-12-22T06:43:12.067Z,67.83
2018-12-22T06:45:42.946Z,67.51
2018-12-22T06:48:13.518Z,68.45
2018-12-22T06:50:44.124Z,68.43
2018-12-22T06:53:14.594Z,67.96
2018-12-22T06:55:45.082Z,68.03
2018-12-22T06:58:15.520Z,67.48
2018-12-22T07:00:46.039Z,67.31
2018-12-22T07:03:16.539Z,67.41
2018-12-22T07:05:47.266Z,68.57
2018-12-22T07:08:17.837Z,66.70
2018-12-22T07:10:48.407Z,67.30
2018-12-22T07:13:18.937Z,65.46
2018-12-22T07:15:49.501Z,65.66
2018-12-22T07:18:20.026Z,65.65
2018-12-22T07:20:50.515Z,63.90
2018-12-22T07:23:21.377Z,65.20
2018-12-22T07:42:18.954Z,64.83
2018-12-22T07:44:49.489Z,64.56
2018-12-22T07:47:20.008Z,64.60
2018-12-22T07:49:50.477Z,64.20
2018-12-22T07:52:20.920Z,64.55
2018-12-22T07:54:51.414Z,65.15
2018-12-22T07:57:23.015Z,64.07
2018-12-22T07:59:53.561Z,64.71
2018-12-22T08:02:24.047Z,64.10
2018-12-22T08:04:55.532Z,64.82
2018-12-22T08:07:26.080Z,64.92
2018-12-22T08:09:56.629Z,64.07
2018-12-22T08:12:27.234Z,64.43
2018-12-22T08:31:16.258Z,65.16
2018-12-22T08:33:47.128Z,64.04
2018-12-22T08:36:17.627Z,63.51
2018-12-22T08:38:48.865Z,63.15
2018-12-22T08:41:19.429Z,63.01
2018-12-22T08:43:50.139Z,63.90
2018-12-22T08:46:20.813Z,63.10
2018-12-22T08:48:51.348Z,64.05
2018-12-22T08:51:21.825Z,64.09
2018-12-22T08:53:54.435Z,64.74
2018-12-22T08:56:25.797Z,65.84
2018-12-22T08:58:56.303Z,65.10
2018-12-22T09:01:26.833Z,65.00
2018-12-22T09:03:57.294Z,64.84
2018-12-22T09:06:27.801Z,64.83
2018-12-22T09:09:03.016Z,65.55
2018-12-22T09:11:33.712Z,65.22
2018-12-22T09:14:04.386Z,66.40
2018-12-22T09:16:36.032Z,66.72
2018-12-22T09:19:07.843Z,67.38
2018-12-22T09:21:39.270Z,67.28
2018-12-22T09:24:10.229Z,67.44
2018-12-22T09:26:41.666Z,67.17
2018-12-22T09:29:12.419Z,67.87
2018-12-22T09:34:35.301Z,69.28
2018-12-22T09:37:07.753Z,69.63
2018-12-22T09:39:39.250Z,72.40
2018-12-22T09:42:10.683Z,74.27
2018-12-22T09:44:43.883Z,75.26
2018-12-22T09:47:16.589Z,73.72
2018-12-22T09:49:48.733Z,71.60
2018-12-22T09:52:21.114Z,70.12
2018-12-22T09:54:51.837Z,69.87
2018-12-22T09:57:22.376Z,70.50
2018-12-22T09:59:52.897Z,73.41
2018-12-22T10:02:23.391Z,74.58
2018-12-22T10:04:54.098Z,76.92
2018-12-22T10:07:24.561Z,75.46
2018-12-22T10:09:55.206Z,74.54
2018-12-22T10:12:25.750Z,71.55
2018-12-22T10:14:56.438Z,72.17
2018-12-22T10:17:27.149Z,66.63
2018-12-22T10:19:57.601Z,66.36
2018-12-22T10:22:28.110Z,67.91
2018-12-22T10:24:58.606Z,64.17
2018-12-22T10:27:29.341Z,62.64
2018-12-22T10:29:59.962Z,63.11
2018-12-22T10:32:30.590Z,61.63
2018-12-22T10:35:01.384Z,63.76
2018-12-22T10:37:31.889Z,65.19
2018-12-22T10:40:02.944Z,68.14
2018-12-22T10:42:34.667Z,67.97
2018-12-22T10:45:05.767Z,67.76
2018-12-22T10:47:36.281Z,69.07
2018-12-22T10:50:06.796Z,70.44
2018-12-22T10:52:37.319Z,70.72
2018-12-22T10:55:09.710Z,72.36
2018-12-22T10:57:40.698Z,72.16
2018-12-22T11:00:15.487Z,74.49
2018-12-22T11:02:46.005Z,75.79
2018-12-22T11:05:17.904Z,76.45
2018-12-22T11:07:49.492Z,73.85
2018-12-22T11:10:24.296Z,73.70
2018-12-22T11:12:58.658Z,74.62
2018-12-22T11:15:29.271Z,74.46
2018-12-22T11:18:00.172Z,74.93
2018-12-22T11:20:30.806Z,74.54
2018-12-22T11:23:01.423Z,72.71
2018-12-22T11:25:32.097Z,71.86
2018-12-22T11:28:02.764Z,71.65
2018-12-22T11:30:40.474Z,71.35
2018-12-22T11:33:11.103Z,70.45
2018-12-22T11:35:41.844Z,70.71
2018-12-22T11:38:12.399Z,70.59
2018-12-22T11:40:43.118Z,69.20
2018-12-22T11:43:13.863Z,69.26
2018-12-22T11:45:44.502Z,70.13
2018-12-22T11:49:28.510Z,68.20
2018-12-22T11:51:59.100Z,69.01
2018-12-22T11:54:29.659Z,67.95
2018-12-22T11:57:00.329Z,67.15
2018-12-22T11:59:31.876Z,66.35
2018-12-22T12:02:09.488Z,66.58
2018-12-22T12:04:35.674Z,65.43
2018-12-22T12:07:06.239Z,65.34
2018-12-22T12:09:36.914Z,65.95
2018-12-22T12:12:07.519Z,66.04
2018-12-22T12:14:38.410Z,65.75
2018-12-22T12:17:31.702Z,66.00
2018-12-22T12:20:02.256Z,66.17
2018-12-22T12:22:33.451Z,65.49
2018-12-22T12:25:04.269Z,64.80
2018-12-22T12:27:34.875Z,64.03
2018-12-22T12:30:07.975Z,64.05
2018-12-22T12:32:38.497Z,63.61
2018-12-22T12:35:09.342Z,63.43
2018-12-22T12:37:46.182Z,63.78
2018-12-22T12:40:18.554Z,64.20
2018-12-22T12:42:49.099Z,64.42
2018-12-22T12:45:19.687Z,64.49
2018-12-22T12:47:50.196Z,64.92
2018-12-22T12:50:23.206Z,65.31
2018-12-22T12:52:53.730Z,66.30
2018-12-22T12:55:30.953Z,66.29
2018-12-22T12:58:03.174Z,66.91
2018-12-22T13:00:34.975Z,66.23
2018-12-22T13:03:09.867Z,66.85
2018-12-22T13:05:40.649Z,67.09
2018-12-22T13:08:14.240Z,67.50
2018-12-22T13:10:44.826Z,68.08
2018-12-22T13:13:40.679Z,67.93
2018-12-22T13:16:11.232Z,67.60
2018-12-22T13:18:41.896Z,67.85
2018-12-22T13:21:12.446Z,68.15
2018-12-22T13:23:43.070Z,68.32
2018-12-22T13:26:13.547Z,68.17
2018-12-22T13:28:44.170Z,67.61
2018-12-22T13:31:17.002Z,68.13
2018-12-22T13:33:47.526Z,67.42
2018-12-22T13:36:20.232Z,66.85
2018-12-22T13:39:05.062Z,67.08
2018-12-22T13:41:36.913Z,66.89
2018-12-22T13:44:07.598Z,67.31
2018-12-22T13:46:38.212Z,67.29
2018-12-22T13:49:09.309Z,67.24
2018-12-22T13:51:43.142Z,67.60
2018-12-22T13:54:16.464Z,67.13
2018-12-22T13:56:46.981Z,67.68
2018-12-22T13:59:17.521Z,67.57
2018-12-22T14:01:54.573Z,67.50
2018-12-22T14:07:10.894Z,68.02
2018-12-22T14:09:41.537Z,68.08
2018-12-22T14:12:12.142Z,68.34
2018-12-22T14:14:44.463Z,67.64
2018-12-22T14:17:30.646Z,68.01
2018-12-22T14:20:07.474Z,68.72
2018-12-22T14:22:38.079Z,68.79
2018-12-22T14:25:23.641Z,68.45
2018-12-22T14:27:54.159Z,69.29
2018-12-22T14:30:32.271Z,68.64
2018-12-22T14:33:19.259Z,68.79
2018-12-22T14:35:56.430Z,69.54
2018-12-22T14:38:26.980Z,69.24
2018-12-22T14:40:57.499Z,69.71
2018-12-22T14:43:27.950Z,69.87
2018-12-22T14:45:58.447Z,69.66
2018-12-22T14:48:28.906Z,69.18
2018-12-22T14:50:59.382Z,69.62
2018-12-22T14:53:29.961Z,69.75
2018-12-22T14:56:00.632Z,70.64
2018-12-22T14:58:37.142Z,70.30
2018-12-22T15:01:07.816Z,70.36
2018-12-22T15:03:38.439Z,70.70
2018-12-22T15:06:09.042Z,70.82
2018-12-22T15:08:39.531Z,71.43
2018-12-22T15:11:10.123Z,71.83
2018-12-22T15:13:40.742Z,72.24
2018-12-22T15:16:11.345Z,72.82
2018-12-22T15:18:41.935Z,73.06
2018-12-22T15:21:12.517Z,72.72
2018-12-22T15:23:43.797Z,73.53
2018-12-22T15:26:14.332Z,73.09
2018-12-22T15:28:47.306Z,73.11
2018-12-22T15:31:17.460Z,73.48
2018-12-22T15:33:47.983Z,73.24
2018-12-22T15:36:18.521Z,73.64
2018-12-22T15:38:49.220Z,73.34
2018-12-22T15:41:19.772Z,74.13
2018-12-22T15:43:50.238Z,73.92
2018-12-22T15:46:20.985Z,73.33
2018-12-22T15:48:54.906Z,73.41
2018-12-22T15:51:25.381Z,73.44
2018-12-22T15:53:55.930Z,73.10
2018-12-22T15:56:26.988Z,72.78
2018-12-22T15:58:57.470Z,72.72
2018-12-22T16:01:27.986Z,72.93
2018-12-22T16:03:58.491Z,72.39
2018-12-22T16:06:29.092Z,72.96
2018-12-22T16:08:59.570Z,73.21
2018-12-22T16:11:30.084Z,73.98
2018-12-22T16:14:00.729Z,74.53
2018-12-22T16:16:32.934Z,74.53
2018-12-22T16:19:04.146Z,74.76
2018-12-22T16:21:35.499Z,74.36
2018-12-22T16:24:07.152Z,75.33
2018-12-22T16:26:39.069Z,75.55
2018-12-22T16:29:19.177Z,75.06
2018-12-22T16:31:49.653Z,74.95
2018-12-22T16:34:23.262Z,74.74
2018-12-22T16:36:55.383Z,75.55
2018-12-22T16:39:25.955Z,74.76
2018-12-22T16:41:56.481Z,75.37
2018-12-22T16:44:26.943Z,74.71
2018-12-22T16:46:57.402Z,74.75
2018-12-22T16:49:28.009Z,74.72
2018-12-22T16:51:58.509Z,75.17
2018-12-22T16:54:29.011Z,75.30
2018-12-22T16:56:59.537Z,75.15
2018-12-22T16:59:32.246Z,74.94
2018-12-22T17:02:16.088Z,74.20
2018-12-22T17:04:46.618Z,74.23
2018-12-22T17:07:17.132Z,73.86
2018-12-22T17:09:47.665Z,74.63
2018-12-22T17:12:18.299Z,73.92
2018-12-22T17:14:48.802Z,74.32
2018-12-22T17:17:19.309Z,74.20
2018-12-22T17:19:49.874Z,74.46
2018-12-22T17:23:34.362Z,74.39
2018-12-22T17:26:08.589Z,74.97
2018-12-22T17:28:39.137Z,73.79
2018-12-22T17:31:11.401Z,74.74
2018-12-22T17:33:42.336Z,74.36
2018-12-22T17:36:12.813Z,73.86
2018-12-22T17:38:43.389Z,74.60
2018-12-22T17:41:14.011Z,74.45
2018-12-22T17:43:46.954Z,74.26
2018-12-22T17:46:17.777Z,73.48
2018-12-22T17:48:48.325Z,73.42
2018-12-22T17:51:18.790Z,73.82
2018-12-22T17:53:49.377Z,73.51
2018-12-22T17:56:19.867Z,73.43
2018-12-22T17:58:50.454Z,73.02
2018-12-22T18:01:20.956Z,73.26
2018-12-22T18:03:51.453Z,73.22
2018-12-22T18:06:21.966Z,72.81
2018-12-22T18:08:52.544Z,73.04
2018-12-22T18:11:23.096Z,73.16
2018-12-22T18:13:53.659Z,72.91
2018-12-22T18:16:24.186Z,73.12
2018-12-22T18:18:54.780Z,73.02
2018-12-22T18:21:25.483Z,73.12
2018-12-22T18:23:56.043Z,73.11
2018-12-22T18:26:26.590Z,73.29
2018-12-22T18:28:57.109Z,73.45
2018-12-22T18:31:27.617Z,74.01
2018-12-22T18:33:58.106Z,74.28
2018-12-22T18:36:28.660Z,75.11
2018-12-22T18:38:59.188Z,74.46
2018-12-22T18:41:29.682Z,74.66
2018-12-22T18:44:00.189Z,74.61
2018-12-22T18:46:30.665Z,75.07
2018-12-22T18:49:01.205Z,75.35
2018-12-22T18:51:31.749Z,74.79
2018-12-22T18:54:02.294Z,75.42
2018-12-22T18:56:32.782Z,75.46
2018-12-22T18:59:03.346Z,75.68
2018-12-22T19:01:33.806Z,75.45
2018-12-22T19:04:04.342Z,75.32
2018-12-22T19:06:34.864Z,75.31
2018-12-22T19:09:09.801Z,74.36
2018-12-22T19:11:40.436Z,75.13
2018-12-22T19:14:10.950Z,74.66
2018-12-22T19:16:41.498Z,74.13
2018-12-22T19:19:12.011Z,74.46
2018-12-22T19:21:42.491Z,74.38
2018-12-22T19:24:12.942Z,73.40
2018-12-22T19:26:43.488Z,72.88
2018-12-22T19:29:13.969Z,73.16
2018-12-22T19:31:44.453Z,73.77
2018-12-22T19:34:15.083Z,73.33
2018-12-22T19:36:45.595Z,73.42
2018-12-22T19:39:16.109Z,72.95
2018-12-22T19:41:46.579Z,73.36
2018-12-22T19:44:17.053Z,73.41
2018-12-22T19:46:54.255Z,73.42
2018-12-22T19:49:25.481Z,73.60
2018-12-22T19:51:55.926Z,73.70
2018-12-22T19:54:26.489Z,74.18
2018-12-22T19:56:57.004Z,74.35
2018-12-22T19:59:27.485Z,73.97
2018-12-22T20:01:58.015Z,73.89
2018-12-22T20:04:28.505Z,73.42
2018-12-22T20:06:58.939Z,73.75
2018-12-22T20:09:29.418Z,73.24
2018-12-22T20:11:59.894Z,74.37
2018-12-22T20:14:30.385Z,74.43
2018-12-22T20:17:00.860Z,73.95
2018-12-22T20:19:35.486Z,73.38
2018-12-22T20:22:05.962Z,72.67
2018-12-22T20:24:36.492Z,72.63
2018-12-22T20:27:06.973Z,73.45
2018-12-22T20:29:37.479Z,73.98
2018-12-22T20:32:08.612Z,73.35
2018-12-22T20:34:41.570Z,73.54
2018-12-22T20:37:13.086Z,73.71
2018-12-22T20:39:43.855Z,73.37
2018-12-22T20:42:15.943Z,74.76
2018-12-22T20:44:46.471Z,73.73
2018-12-22T20:47:16.949Z,73.53
2018-12-22T20:49:47.408Z,73.89
2018-12-22T20:52:17.913Z,74.65
2018-12-22T20:54:48.495Z,73.56
2018-12-22T20:57:19.998Z,73.62
2018-12-22T20:59:51.586Z,73.21
2018-12-22T21:02:22.325Z,73.60
2018-12-22T21:04:53.198Z,74.57
2018-12-22T21:07:24.526Z,74.41
2018-12-22T21:09:56.061Z,73.48
2018-12-22T21:12:26.831Z,73.99
2018-12-22T21:14:57.296Z,73.98
2018-12-22T21:17:27.942Z,74.16
2018-12-22T21:19:58.634Z,74.72
2018-12-22T21:22:29.375Z,75.14
2018-12-22T21:25:00.904Z,74.45
2018-12-22T21:27:31.567Z,74.53
2018-12-22T21:30:02.052Z,74.25
2018-12-22T21:32:32.597Z,73.97
2018-12-22T21:35:03.066Z,74.46
2018-12-22T21:37:33.614Z,75.18
2018-12-22T21:40:05.255Z,74.51
2018-12-22T21:42:36.002Z,75.08
2018-12-22T21:45:06.839Z,75.24
2018-12-22T21:47:37.720Z,74.89
2018-12-22T21:50:08.266Z,74.77
2018-12-22T21:52:38.801Z,75.33
2018-12-22T21:55:10.310Z,75.64
2018-12-22T21:57:41.058Z,75.44
2018-12-22T22:00:11.708Z,75.48
2018-12-22T22:02:42.563Z,75.42
2018-12-22T22:05:13.561Z,75.80
2018-12-22T22:07:51.048Z,75.85
2018-12-22T22:10:21.915Z,76.17
2018-12-22T22:12:52.623Z,74.75
2018-12-22T22:15:26.104Z,75.49
2018-12-22T22:17:56.773Z,76.07
2018-12-22T22:20:27.524Z,76.25
2018-12-22T22:22:58.179Z,76.15
2018-12-22T22:25:38.490Z,75.67
2018-12-22T22:28:11.106Z,75.20
2018-12-22T22:30:54.204Z,75.83
2018-12-22T22:33:25.832Z,74.88
2018-12-22T22:35:56.529Z,75.47
2018-12-22T22:38:29.136Z,75.19
2018-12-22T22:40:59.859Z,75.71
2018-12-22T22:43:30.342Z,75.80
2018-12-22T22:46:00.842Z,76.32
2018-12-22T22:48:31.382Z,76.03
2018-12-22T22:51:01.887Z,75.95
2018-12-22T22:53:32.341Z,75.19
2018-12-22T22:56:02.829Z,75.81
2018-12-22T22:58:33.324Z,75.69
2018-12-22T23:01:03.852Z,76.25
2018-12-22T23:03:34.448Z,75.66
2018-12-22T23:06:05.051Z,75.80
2018-12-22T23:08:35.674Z,75.32
2018-12-22T23:11:06.229Z,75.80
2018-12-22T23:13:36.798Z,75.65
2018-12-22T23:16:08.968Z,74.70
2018-12-22T23:18:39.653Z,74.86
2018-12-22T23:21:10.147Z,74.25
2018-12-22T23:23:40.664Z,74.13
2018-12-22T23:26:11.167Z,74.45
2018-12-22T23:28:41.618Z,73.95
2018-12-22T23:31:12.124Z,74.43
2018-12-22T23:33:42.607Z,75.75
2018-12-22T23:36:13.108Z,75.32
2018-12-22T23:38:43.643Z,75.37
2018-12-22T23:41:14.252Z,75.00
2018-12-22T23:43:44.738Z,74.41
2018-12-22T23:46:15.233Z,74.00
2018-12-22T23:48:45.676Z,74.21
2018-12-22T23:51:16.214Z,74.63
2018-12-22T23:53:46.710Z,74.47
2018-12-22T23:56:17.265Z,73.79
2018-12-22T23:58:47.735Z,74.38
